sensor_id;sensor_type;location;lat;lon;timestamp;P1;durP1;ratioP1;P2;durP2;ratioP2
23988;SDS011;74667;52.136;5.592;2024-02-16T00:00:57;7.05;;;3.20;;
23988;SDS011;74667;52.136;5.592;2024-02-16T00:03:22;7.07;;;2.80;;
23988;SDS011;74667;52.136;5.592;2024-02-16T00:05:47;5.57;;;2.93;;
23988;SDS011;74667;52.136;5.592;2024-02-16T00:08:13;6.25;;;3.17;;
23988;SDS011;74667;52.136;5.592;2024-02-16T00:10:38;11.10;;;3.13;;
23988;SDS011;74667;52.136;5.592;2024-02-16T00:13:03;8.30;;;3.53;;
23988;SDS011;74667;52.136;5.592;2024-02-16T00:15:29;8.10;;;3.03;;
23988;SDS011;74667;52.136;5.592;2024-02-16T00:17:54;8.27;;;2.60;;
23988;SDS011;74667;52.136;5.592;2024-02-16T00:20:19;5.87;;;2.90;;
23988;SDS011;74667;52.136;5.592;2024-02-16T00:22:47;6.38;;;2.88;;
23988;SDS011;74667;52.136;5.592;2024-02-16T00:25:12;10.13;;;2.93;;
23988;SDS011;74667;52.136;5.592;2024-02-16T00:27:37;5.25;;;3.05;;
23988;SDS011;74667;52.136;5.592;2024-02-16T00:30:03;4.80;;;2.63;;
23988;SDS011;74667;52.136;5.592;2024-02-16T00:32:29;5.13;;;2.85;;
23988;SDS011;74667;52.136;5.592;2024-02-16T00:34:55;10.13;;;3.30;;
23988;SDS011;74667;52.136;5.592;2024-02-16T00:37:20;5.47;;;3.47;;
23988;SDS011;74667;52.136;5.592;2024-02-16T00:39:46;9.32;;;3.10;;
23988;SDS011;74667;52.136;5.592;2024-02-16T00:42:14;5.72;;;3.08;;
23988;SDS011;74667;52.136;5.592;2024-02-16T00:44:39;11.53;;;2.63;;
23988;SDS011;74667;52.136;5.592;2024-02-16T00:47:07;9.43;;;3.50;;
23988;SDS011;74667;52.136;5.592;2024-02-16T00:49:34;6.65;;;3.30;;
23988;SDS011;74667;52.136;5.592;2024-02-16T00:51:59;7.40;;;3.00;;
23988;SDS011;74667;52.136;5.592;2024-02-16T00:54:26;9.40;;;4.05;;
23988;SDS011;74667;52.136;5.592;2024-02-16T00:56:51;10.82;;;2.95;;
23988;SDS011;74667;52.136;5.592;2024-02-16T00:59:16;10.98;;;3.50;;
23988;SDS011;74667;52.136;5.592;2024-02-16T01:01:44;8.57;;;2.80;;
23988;SDS011;74667;52.136;5.592;2024-02-16T01:04:10;8.38;;;3.55;;
23988;SDS011;74667;52.136;5.592;2024-02-16T01:06:35;8.87;;;3.33;;
23988;SDS011;74667;52.136;5.592;2024-02-16T01:09:00;5.88;;;2.83;;
23988;SDS011;74667;52.136;5.592;2024-02-16T01:11:25;6.97;;;3.22;;
23988;SDS011;74667;52.136;5.592;2024-02-16T01:13:51;8.63;;;3.38;;
23988;SDS011;74667;52.136;5.592;2024-02-16T01:16:16;7.55;;;3.50;;
23988;SDS011;74667;52.136;5.592;2024-02-16T01:18:42;5.45;;;3.25;;
23988;SDS011;74667;52.136;5.592;2024-02-16T01:21:09;5.40;;;3.08;;
23988;SDS011;74667;52.136;5.592;2024-02-16T01:23:34;6.53;;;3.03;;
23988;SDS011;74667;52.136;5.592;2024-02-16T01:26:00;15.30;;;3.47;;
23988;SDS011;74667;52.136;5.592;2024-02-16T01:28:25;8.33;;;3.27;;
23988;SDS011;74667;52.136;5.592;2024-02-16T01:30:50;9.17;;;3.33;;
23988;SDS011;74667;52.136;5.592;2024-02-16T01:33:15;6.33;;;3.30;;
23988;SDS011;74667;52.136;5.592;2024-02-16T01:35:41;6.90;;;3.28;;
23988;SDS011;74667;52.136;5.592;2024-02-16T01:38:06;6.00;;;3.30;;
23988;SDS011;74667;52.136;5.592;2024-02-16T01:40:31;6.57;;;3.03;;
23988;SDS011;74667;52.136;5.592;2024-02-16T01:42:57;5.30;;;3.20;;
23988;SDS011;74667;52.136;5.592;2024-02-16T01:45:22;8.00;;;3.30;;
23988;SDS011;74667;52.136;5.592;2024-02-16T01:47:48;5.35;;;3.30;;
23988;SDS011;74667;52.136;5.592;2024-02-16T01:50:15;8.95;;;3.35;;
23988;SDS011;74667;52.136;5.592;2024-02-16T01:52:40;7.95;;;3.38;;
23988;SDS011;74667;52.136;5.592;2024-02-16T01:55:05;8.10;;;3.38;;
23988;SDS011;74667;52.136;5.592;2024-02-16T01:57:34;8.82;;;3.53;;
23988;SDS011;74667;52.136;5.592;2024-02-16T01:59:59;8.38;;;3.40;;
23988;SDS011;74667;52.136;5.592;2024-02-16T02:02:24;10.68;;;3.72;;
23988;SDS011;74667;52.136;5.592;2024-02-16T02:04:49;6.00;;;3.15;;
23988;SDS011;74667;52.136;5.592;2024-02-16T02:07:15;6.63;;;3.45;;
23988;SDS011;74667;52.136;5.592;2024-02-16T02:09:40;5.30;;;3.13;;
23988;SDS011;74667;52.136;5.592;2024-02-16T02:12:06;6.55;;;3.35;;
23988;SDS011;74667;52.136;5.592;2024-02-16T02:14:31;5.93;;;3.00;;
23988;SDS011;74667;52.136;5.592;2024-02-16T02:16:56;9.93;;;3.60;;
23988;SDS011;74667;52.136;5.592;2024-02-16T02:19:21;7.03;;;3.30;;
23988;SDS011;74667;52.136;5.592;2024-02-16T02:21:46;7.00;;;3.17;;
23988;SDS011;74667;52.136;5.592;2024-02-16T02:24:12;4.13;;;3.10;;
23988;SDS011;74667;52.136;5.592;2024-02-16T02:26:38;5.15;;;3.28;;
23988;SDS011;74667;52.136;5.592;2024-02-16T02:29:03;9.98;;;3.55;;
23988;SDS011;74667;52.136;5.592;2024-02-16T02:31:29;6.47;;;3.55;;
23988;SDS011;74667;52.136;5.592;2024-02-16T02:33:55;6.32;;;3.45;;
23988;SDS011;74667;52.136;5.592;2024-02-16T02:36:20;8.77;;;3.43;;
23988;SDS011;74667;52.136;5.592;2024-02-16T02:38:45;6.00;;;3.03;;
23988;SDS011;74667;52.136;5.592;2024-02-16T02:41:10;5.05;;;2.90;;
23988;SDS011;74667;52.136;5.592;2024-02-16T02:43:35;7.38;;;3.45;;
23988;SDS011;74667;52.136;5.592;2024-02-16T02:46:01;5.63;;;3.17;;
23988;SDS011;74667;52.136;5.592;2024-02-16T02:48:26;5.47;;;3.35;;
23988;SDS011;74667;52.136;5.592;2024-02-16T02:50:51;8.67;;;3.40;;
23988;SDS011;74667;52.136;5.592;2024-02-16T02:53:16;5.70;;;3.22;;
23988;SDS011;74667;52.136;5.592;2024-02-16T02:55:43;9.63;;;3.63;;
23988;SDS011;74667;52.136;5.592;2024-02-16T02:58:08;7.32;;;3.60;;
23988;SDS011;74667;52.136;5.592;2024-02-16T03:00:33;12.67;;;3.50;;
23988;SDS011;74667;52.136;5.592;2024-02-16T03:03:01;6.57;;;3.30;;
23988;SDS011;74667;52.136;5.592;2024-02-16T03:05:26;7.75;;;3.08;;
23988;SDS011;74667;52.136;5.592;2024-02-16T03:07:52;6.05;;;3.35;;
23988;SDS011;74667;52.136;5.592;2024-02-16T03:10:17;7.85;;;3.53;;
23988;SDS011;74667;52.136;5.592;2024-02-16T03:12:47;6.80;;;3.28;;
23988;SDS011;74667;52.136;5.592;2024-02-16T03:15:14;7.13;;;3.45;;
23988;SDS011;74667;52.136;5.592;2024-02-16T03:17:39;5.93;;;3.10;;
23988;SDS011;74667;52.136;5.592;2024-02-16T03:20:05;6.80;;;3.17;;
23988;SDS011;74667;52.136;5.592;2024-02-16T03:22:30;5.85;;;3.15;;
23988;SDS011;74667;52.136;5.592;2024-02-16T03:24:55;8.90;;;3.83;;
23988;SDS011;74667;52.136;5.592;2024-02-16T03:27:21;8.32;;;3.40;;
23988;SDS011;74667;52.136;5.592;2024-02-16T03:29:46;8.07;;;3.40;;
23988;SDS011;74667;52.136;5.592;2024-02-16T03:32:12;9.65;;;3.80;;
23988;SDS011;74667;52.136;5.592;2024-02-16T03:34:38;6.63;;;3.40;;
23988;SDS011;74667;52.136;5.592;2024-02-16T03:37:03;5.37;;;2.97;;
23988;SDS011;74667;52.136;5.592;2024-02-16T03:39:28;5.25;;;3.28;;
23988;SDS011;74667;52.136;5.592;2024-02-16T03:41:54;6.93;;;3.90;;
23988;SDS011;74667;52.136;5.592;2024-02-16T03:44:19;5.53;;;3.60;;
23988;SDS011;74667;52.136;5.592;2024-02-16T03:46:44;8.47;;;3.33;;
23988;SDS011;74667;52.136;5.592;2024-02-16T03:49:09;7.10;;;3.40;;
23988;SDS011;74667;52.136;5.592;2024-02-16T03:51:37;11.18;;;3.90;;
23988;SDS011;74667;52.136;5.592;2024-02-16T03:54:02;9.02;;;3.65;;
23988;SDS011;74667;52.136;5.592;2024-02-16T03:56:29;6.50;;;3.47;;
23988;SDS011;74667;52.136;5.592;2024-02-16T03:58:54;5.15;;;3.47;;
23988;SDS011;74667;52.136;5.592;2024-02-16T04:01:20;9.40;;;4.03;;
23988;SDS011;74667;52.136;5.592;2024-02-16T04:03:45;6.60;;;3.72;;
23988;SDS011;74667;52.136;5.592;2024-02-16T04:06:10;10.70;;;3.90;;
23988;SDS011;74667;52.136;5.592;2024-02-16T04:08:35;5.38;;;3.25;;
23988;SDS011;74667;52.136;5.592;2024-02-16T04:11:01;6.20;;;3.30;;
23988;SDS011;74667;52.136;5.592;2024-02-16T04:13:26;7.30;;;3.73;;
23988;SDS011;74667;52.136;5.592;2024-02-16T04:15:51;5.77;;;3.37;;
23988;SDS011;74667;52.136;5.592;2024-02-16T04:18:16;3.75;;;3.20;;
23988;SDS011;74667;52.136;5.592;2024-02-16T04:20:43;8.07;;;3.67;;
23988;SDS011;74667;52.136;5.592;2024-02-16T04:23:08;6.07;;;3.33;;
23988;SDS011;74667;52.136;5.592;2024-02-16T04:25:34;6.45;;;3.65;;
23988;SDS011;74667;52.136;5.592;2024-02-16T04:27:59;7.83;;;3.67;;
23988;SDS011;74667;52.136;5.592;2024-02-16T04:30:24;10.52;;;3.85;;
23988;SDS011;74667;52.136;5.592;2024-02-16T04:32:49;5.77;;;3.70;;
23988;SDS011;74667;52.136;5.592;2024-02-16T04:35:17;6.45;;;4.03;;
23988;SDS011;74667;52.136;5.592;2024-02-16T04:37:42;5.90;;;3.53;;
23988;SDS011;74667;52.136;5.592;2024-02-16T04:40:08;5.43;;;3.50;;
23988;SDS011;74667;52.136;5.592;2024-02-16T04:42:33;7.50;;;3.53;;
23988;SDS011;74667;52.136;5.592;2024-02-16T04:44:59;6.00;;;3.80;;
23988;SDS011;74667;52.136;5.592;2024-02-16T04:47:27;5.60;;;3.40;;
23988;SDS011;74667;52.136;5.592;2024-02-16T04:49:53;7.60;;;3.95;;
23988;SDS011;74667;52.136;5.592;2024-02-16T04:52:18;10.70;;;3.92;;
23988;SDS011;74667;52.136;5.592;2024-02-16T04:54:43;8.40;;;3.78;;
23988;SDS011;74667;52.136;5.592;2024-02-16T04:57:09;9.13;;;3.47;;
23988;SDS011;74667;52.136;5.592;2024-02-16T04:59:34;8.02;;;3.88;;
23988;SDS011;74667;52.136;5.592;2024-02-16T05:01:59;8.40;;;3.70;;
23988;SDS011;74667;52.136;5.592;2024-02-16T05:04:24;5.80;;;3.60;;
23988;SDS011;74667;52.136;5.592;2024-02-16T05:06:50;6.22;;;3.65;;
23988;SDS011;74667;52.136;5.592;2024-02-16T05:09:17;5.30;;;3.55;;
23988;SDS011;74667;52.136;5.592;2024-02-16T05:11:43;7.60;;;3.50;;
23988;SDS011;74667;52.136;5.592;2024-02-16T05:14:08;7.18;;;3.65;;
23988;SDS011;74667;52.136;5.592;2024-02-16T05:16:36;7.13;;;3.75;;
23988;SDS011;74667;52.136;5.592;2024-02-16T05:19:02;6.27;;;3.13;;
23988;SDS011;74667;52.136;5.592;2024-02-16T05:21:27;7.15;;;3.78;;
23988;SDS011;74667;52.136;5.592;2024-02-16T05:23:52;10.10;;;3.67;;
23988;SDS011;74667;52.136;5.592;2024-02-16T05:26:17;5.07;;;3.50;;
23988;SDS011;74667;52.136;5.592;2024-02-16T05:28:42;8.93;;;3.23;;
23988;SDS011;74667;52.136;5.592;2024-02-16T05:31:14;6.40;;;3.50;;
23988;SDS011;74667;52.136;5.592;2024-02-16T05:33:44;7.28;;;3.53;;
23988;SDS011;74667;52.136;5.592;2024-02-16T05:36:09;7.82;;;3.97;;
23988;SDS011;74667;52.136;5.592;2024-02-16T05:38:35;9.20;;;3.88;;
23988;SDS011;74667;52.136;5.592;2024-02-16T05:41:00;7.88;;;3.70;;
23988;SDS011;74667;52.136;5.592;2024-02-16T05:43:25;4.82;;;3.80;;
23988;SDS011;74667;52.136;5.592;2024-02-16T05:45:50;6.43;;;3.42;;
23988;SDS011;74667;52.136;5.592;2024-02-16T05:48:16;7.18;;;3.50;;
23988;SDS011;74667;52.136;5.592;2024-02-16T05:50:41;11.73;;;3.87;;
23988;SDS011;74667;52.136;5.592;2024-02-16T05:53:06;7.53;;;3.40;;
23988;SDS011;74667;52.136;5.592;2024-02-16T05:55:31;5.25;;;3.15;;
23988;SDS011;74667;52.136;5.592;2024-02-16T05:57:57;11.03;;;3.80;;
23988;SDS011;74667;52.136;5.592;2024-02-16T06:00:22;5.97;;;4.10;;
23988;SDS011;74667;52.136;5.592;2024-02-16T06:02:47;7.03;;;3.30;;
23988;SDS011;74667;52.136;5.592;2024-02-16T06:05:12;9.13;;;3.80;;
23988;SDS011;74667;52.136;5.592;2024-02-16T06:07:38;7.22;;;3.50;;
23988;SDS011;74667;52.136;5.592;2024-02-16T06:10:03;12.05;;;3.80;;
23988;SDS011;74667;52.136;5.592;2024-02-16T06:12:32;8.27;;;3.47;;
23988;SDS011;74667;52.136;5.592;2024-02-16T06:14:57;8.65;;;3.92;;
23988;SDS011;74667;52.136;5.592;2024-02-16T06:17:22;5.72;;;3.45;;
23988;SDS011;74667;52.136;5.592;2024-02-16T06:19:48;4.67;;;3.50;;
23988;SDS011;74667;52.136;5.592;2024-02-16T06:22:13;9.40;;;3.72;;
23988;SDS011;74667;52.136;5.592;2024-02-16T06:24:38;5.50;;;3.30;;
23988;SDS011;74667;52.136;5.592;2024-02-16T06:27:04;7.20;;;3.70;;
23988;SDS011;74667;52.136;5.592;2024-02-16T06:29:29;6.97;;;3.63;;
23988;SDS011;74667;52.136;5.592;2024-02-16T06:31:55;8.07;;;4.55;;
23988;SDS011;74667;52.136;5.592;2024-02-16T06:34:20;8.10;;;4.25;;
23988;SDS011;74667;52.136;5.592;2024-02-16T06:36:45;6.40;;;3.97;;
23988;SDS011;74667;52.136;5.592;2024-02-16T06:39:11;9.00;;;3.58;;
23988;SDS011;74667;52.136;5.592;2024-02-16T06:41:36;6.40;;;3.53;;
23988;SDS011;74667;52.136;5.592;2024-02-16T06:44:02;5.22;;;3.50;;
23988;SDS011;74667;52.136;5.592;2024-02-16T06:46:28;10.75;;;3.97;;
23988;SDS011;74667;52.136;5.592;2024-02-16T06:48:54;7.78;;;3.70;;
23988;SDS011;74667;52.136;5.592;2024-02-16T06:51:22;7.68;;;3.45;;
23988;SDS011;74667;52.136;5.592;2024-02-16T06:53:47;6.15;;;3.45;;
23988;SDS011;74667;52.136;5.592;2024-02-16T06:56:12;7.73;;;3.70;;
23988;SDS011;74667;52.136;5.592;2024-02-16T06:58:37;4.82;;;3.35;;
23988;SDS011;74667;52.136;5.592;2024-02-16T07:01:03;7.93;;;3.43;;
23988;SDS011;74667;52.136;5.592;2024-02-16T07:03:28;10.68;;;3.75;;
23988;SDS011;74667;52.136;5.592;2024-02-16T07:05:54;6.45;;;3.72;;
23988;SDS011;74667;52.136;5.592;2024-02-16T07:08:19;6.95;;;3.47;;
23988;SDS011;74667;52.136;5.592;2024-02-16T07:10:45;7.97;;;3.92;;
23988;SDS011;74667;52.136;5.592;2024-02-16T07:13:12;6.03;;;3.72;;
23988;SDS011;74667;52.136;5.592;2024-02-16T07:15:37;6.63;;;3.83;;
23988;SDS011;74667;52.136;5.592;2024-02-16T07:18:04;14.38;;;4.20;;
23988;SDS011;74667;52.136;5.592;2024-02-16T07:20:29;6.38;;;3.92;;
23988;SDS011;74667;52.136;5.592;2024-02-16T07:22:54;7.20;;;3.60;;
23988;SDS011;74667;52.136;5.592;2024-02-16T07:25:19;14.32;;;4.90;;
23988;SDS011;74667;52.136;5.592;2024-02-16T07:27:44;9.27;;;3.80;;
23988;SDS011;74667;52.136;5.592;2024-02-16T07:30:10;5.53;;;3.50;;
23988;SDS011;74667;52.136;5.592;2024-02-16T07:32:38;9.95;;;4.07;;
23988;SDS011;74667;52.136;5.592;2024-02-16T07:35:04;9.75;;;3.63;;
23988;SDS011;74667;52.136;5.592;2024-02-16T07:37:29;9.02;;;3.85;;
23988;SDS011;74667;52.136;5.592;2024-02-16T07:39:55;7.88;;;3.58;;
23988;SDS011;74667;52.136;5.592;2024-02-16T07:42:20;10.40;;;4.03;;
23988;SDS011;74667;52.136;5.592;2024-02-16T07:44:45;10.38;;;4.10;;
23988;SDS011;74667;52.136;5.592;2024-02-16T07:47:11;6.88;;;4.43;;
23988;SDS011;74667;52.136;5.592;2024-02-16T07:49:37;5.18;;;3.72;;
23988;SDS011;74667;52.136;5.592;2024-02-16T07:52:03;6.88;;;3.50;;
23988;SDS011;74667;52.136;5.592;2024-02-16T07:54:28;6.63;;;3.58;;
23988;SDS011;74667;52.136;5.592;2024-02-16T07:56:54;7.03;;;3.95;;
23988;SDS011;74667;52.136;5.592;2024-02-16T07:59:19;5.65;;;3.50;;
23988;SDS011;74667;52.136;5.592;2024-02-16T08:01:44;7.40;;;4.20;;
23988;SDS011;74667;52.136;5.592;2024-02-16T08:04:10;6.85;;;3.90;;
23988;SDS011;74667;52.136;5.592;2024-02-16T08:06:35;6.32;;;3.60;;
23988;SDS011;74667;52.136;5.592;2024-02-16T08:09:00;8.18;;;3.88;;
23988;SDS011;74667;52.136;5.592;2024-02-16T08:11:26;8.00;;;4.43;;
23988;SDS011;74667;52.136;5.592;2024-02-16T08:13:52;8.25;;;3.90;;
23988;SDS011;74667;52.136;5.592;2024-02-16T08:16:17;11.63;;;4.25;;
23988;SDS011;74667;52.136;5.592;2024-02-16T08:18:43;6.90;;;4.13;;
23988;SDS011;74667;52.136;5.592;2024-02-16T08:21:08;8.55;;;4.05;;
23988;SDS011;74667;52.136;5.592;2024-02-16T08:23:35;12.40;;;4.25;;
23988;SDS011;74667;52.136;5.592;2024-02-16T08:26:00;7.75;;;4.50;;
23988;SDS011;74667;52.136;5.592;2024-02-16T08:28:25;10.10;;;4.25;;
23988;SDS011;74667;52.136;5.592;2024-02-16T08:30:51;7.85;;;3.88;;
23988;SDS011;74667;52.136;5.592;2024-02-16T08:33:16;8.07;;;4.13;;
23988;SDS011;74667;52.136;5.592;2024-02-16T08:35:41;7.80;;;3.97;;
23988;SDS011;74667;52.136;5.592;2024-02-16T08:38:06;9.95;;;4.30;;
23988;SDS011;74667;52.136;5.592;2024-02-16T08:40:36;10.38;;;4.10;;
23988;SDS011;74667;52.136;5.592;2024-02-16T08:43:01;7.93;;;4.30;;
23988;SDS011;74667;52.136;5.592;2024-02-16T08:45:30;10.18;;;5.10;;
23988;SDS011;74667;52.136;5.592;2024-02-16T08:47:55;8.20;;;4.25;;
23988;SDS011;74667;52.136;5.592;2024-02-16T08:50:22;10.60;;;4.05;;
23988;SDS011;74667;52.136;5.592;2024-02-16T08:52:47;9.43;;;4.30;;
23988;SDS011;74667;52.136;5.592;2024-02-16T08:55:12;6.38;;;4.10;;
23988;SDS011;74667;52.136;5.592;2024-02-16T08:57:37;9.65;;;3.95;;
23988;SDS011;74667;52.136;5.592;2024-02-16T09:00:03;6.70;;;4.50;;
23988;SDS011;74667;52.136;5.592;2024-02-16T09:02:28;6.03;;;3.75;;
23988;SDS011;74667;52.136;5.592;2024-02-16T09:04:53;9.53;;;4.47;;
23988;SDS011;74667;52.136;5.592;2024-02-16T09:07:19;11.23;;;4.75;;
23988;SDS011;74667;52.136;5.592;2024-02-16T09:09:44;11.73;;;4.53;;
23988;SDS011;74667;52.136;5.592;2024-02-16T09:12:09;12.13;;;4.77;;
23988;SDS011;74667;52.136;5.592;2024-02-16T09:14:34;9.63;;;4.63;;
23988;SDS011;74667;52.136;5.592;2024-02-16T09:16:59;8.50;;;4.30;;
23988;SDS011;74667;52.136;5.592;2024-02-16T09:19:24;16.67;;;4.60;;
23988;SDS011;74667;52.136;5.592;2024-02-16T09:21:50;11.40;;;4.83;;
23988;SDS011;74667;52.136;5.592;2024-02-16T09:24:16;8.50;;;4.25;;
23988;SDS011;74667;52.136;5.592;2024-02-16T09:26:43;9.85;;;4.90;;
23988;SDS011;74667;52.136;5.592;2024-02-16T09:29:10;15.52;;;4.93;;
23988;SDS011;74667;52.136;5.592;2024-02-16T09:31:36;9.10;;;4.90;;
23988;SDS011;74667;52.136;5.592;2024-02-16T09:34:01;8.87;;;4.40;;
23988;SDS011;74667;52.136;5.592;2024-02-16T09:36:27;12.40;;;5.38;;
23988;SDS011;74667;52.136;5.592;2024-02-16T09:38:53;16.52;;;5.57;;
23988;SDS011;74667;52.136;5.592;2024-02-16T09:41:18;9.63;;;4.85;;
23988;SDS011;74667;52.136;5.592;2024-02-16T09:43:43;9.77;;;5.13;;
23988;SDS011;74667;52.136;5.592;2024-02-16T09:46:08;9.27;;;5.45;;
23988;SDS011;74667;52.136;5.592;2024-02-16T09:48:35;9.52;;;5.55;;
23988;SDS011;74667;52.136;5.592;2024-02-16T09:51:00;15.20;;;6.35;;
23988;SDS011;74667;52.136;5.592;2024-02-16T09:53:26;11.83;;;5.83;;
23988;SDS011;74667;52.136;5.592;2024-02-16T09:55:52;12.80;;;5.97;;
23988;SDS011;74667;52.136;5.592;2024-02-16T09:58:18;8.88;;;5.72;;
23988;SDS011;74667;52.136;5.592;2024-02-16T10:00:53;11.63;;;5.32;;
23988;SDS011;74667;52.136;5.592;2024-02-16T10:03:36;10.50;;;5.55;;
23988;SDS011;74667;52.136;5.592;2024-02-16T10:06:05;11.23;;;6.05;;
23988;SDS011;74667;52.136;5.592;2024-02-16T10:08:31;10.73;;;5.55;;
23988;SDS011;74667;52.136;5.592;2024-02-16T10:11:00;11.98;;;5.90;;
23988;SDS011;74667;52.136;5.592;2024-02-16T10:13:25;11.25;;;5.63;;
23988;SDS011;74667;52.136;5.592;2024-02-16T10:15:50;12.43;;;5.93;;
23988;SDS011;74667;52.136;5.592;2024-02-16T10:18:16;14.20;;;5.93;;
23988;SDS011;74667;52.136;5.592;2024-02-16T10:20:41;12.73;;;5.90;;
23988;SDS011;74667;52.136;5.592;2024-02-16T10:23:09;10.73;;;6.80;;
23988;SDS011;74667;52.136;5.592;2024-02-16T10:25:35;11.48;;;6.82;;
23988;SDS011;74667;52.136;5.592;2024-02-16T10:28:05;14.98;;;6.82;;
23988;SDS011;74667;52.136;5.592;2024-02-16T10:30:31;16.65;;;6.93;;
23988;SDS011;74667;52.136;5.592;2024-02-16T10:32:58;10.68;;;6.47;;
23988;SDS011;74667;52.136;5.592;2024-02-16T10:35:24;14.48;;;6.63;;
23988;SDS011;74667;52.136;5.592;2024-02-16T10:37:50;13.00;;;7.25;;
23988;SDS011;74667;52.136;5.592;2024-02-16T10:40:15;10.57;;;7.00;;
23988;SDS011;74667;52.136;5.592;2024-02-16T10:42:44;15.02;;;6.90;;
23988;SDS011;74667;52.136;5.592;2024-02-16T10:45:10;13.60;;;7.15;;
23988;SDS011;74667;52.136;5.592;2024-02-16T10:47:37;11.73;;;7.10;;
23988;SDS011;74667;52.136;5.592;2024-02-16T10:50:03;17.37;;;7.47;;
23988;SDS011;74667;52.136;5.592;2024-02-16T10:52:29;16.15;;;7.70;;
23988;SDS011;74667;52.136;5.592;2024-02-16T10:54:54;15.07;;;8.38;;
23988;SDS011;74667;52.136;5.592;2024-02-16T10:57:20;11.13;;;7.50;;
23988;SDS011;74667;52.136;5.592;2024-02-16T10:59:48;14.07;;;7.88;;
23988;SDS011;74667;52.136;5.592;2024-02-16T11:02:15;13.60;;;8.57;;
23988;SDS011;74667;52.136;5.592;2024-02-16T11:04:44;15.23;;;7.95;;
23988;SDS011;74667;52.136;5.592;2024-02-16T11:07:10;20.65;;;8.82;;
23988;SDS011;74667;52.136;5.592;2024-02-16T11:09:38;14.13;;;8.38;;
23988;SDS011;74667;52.136;5.592;2024-02-16T11:12:03;15.25;;;8.48;;
23988;SDS011;74667;52.136;5.592;2024-02-16T11:14:39;18.98;;;8.80;;
23988;SDS011;74667;52.136;5.592;2024-02-16T11:17:38;13.20;;;8.38;;
23988;SDS011;74667;52.136;5.592;2024-02-16T11:19:57;13.68;;;8.95;;
23988;SDS011;74667;52.136;5.592;2024-02-16T11:22:26;16.98;;;9.55;;
23988;SDS011;74667;52.136;5.592;2024-02-16T11:24:53;15.43;;;9.70;;
23988;SDS011;74667;52.136;5.592;2024-02-16T11:27:18;20.10;;;10.60;;
23988;SDS011;74667;52.136;5.592;2024-02-16T11:29:44;16.92;;;10.68;;
23988;SDS011;74667;52.136;5.592;2024-02-16T11:32:09;15.00;;;10.52;;
23988;SDS011;74667;52.136;5.592;2024-02-16T11:34:34;15.47;;;10.80;;
23988;SDS011;74667;52.136;5.592;2024-02-16T11:37:00;15.17;;;10.50;;
23988;SDS011;74667;52.136;5.592;2024-02-16T11:39:26;18.48;;;11.10;;
23988;SDS011;74667;52.136;5.592;2024-02-16T11:42:01;19.83;;;11.57;;
23988;SDS011;74667;52.136;5.592;2024-02-16T11:44:27;18.13;;;11.40;;
23988;SDS011;74667;52.136;5.592;2024-02-16T11:46:53;14.48;;;10.43;;
23988;SDS011;74667;52.136;5.592;2024-02-16T11:49:18;16.45;;;11.05;;
23988;SDS011;74667;52.136;5.592;2024-02-16T11:51:44;15.97;;;11.13;;
23988;SDS011;74667;52.136;5.592;2024-02-16T11:54:09;16.33;;;11.33;;
23988;SDS011;74667;52.136;5.592;2024-02-16T11:56:34;13.55;;;10.73;;
23988;SDS011;74667;52.136;5.592;2024-02-16T11:58:59;15.30;;;10.45;;
23988;SDS011;74667;52.136;5.592;2024-02-16T12:01:25;14.07;;;10.20;;
23988;SDS011;74667;52.136;5.592;2024-02-16T12:03:50;19.45;;;10.75;;
23988;SDS011;74667;52.136;5.592;2024-02-16T12:06:19;12.90;;;9.68;;
23988;SDS011;74667;52.136;5.592;2024-02-16T12:08:45;14.05;;;10.85;;
23988;SDS011;74667;52.136;5.592;2024-02-16T12:11:10;14.63;;;10.30;;
23988;SDS011;74667;52.136;5.592;2024-02-16T12:13:35;17.90;;;11.37;;
23988;SDS011;74667;52.136;5.592;2024-02-16T12:16:01;16.63;;;11.40;;
23988;SDS011;74667;52.136;5.592;2024-02-16T12:18:27;17.05;;;10.85;;
23988;SDS011;74667;52.136;5.592;2024-02-16T12:20:58;18.30;;;11.73;;
23988;SDS011;74667;52.136;5.592;2024-02-16T12:23:24;15.65;;;11.85;;
23988;SDS011;74667;52.136;5.592;2024-02-16T12:25:49;20.38;;;12.05;;
23988;SDS011;74667;52.136;5.592;2024-02-16T12:28:14;20.38;;;12.07;;
23988;SDS011;74667;52.136;5.592;2024-02-16T12:30:40;18.53;;;11.70;;
23988;SDS011;74667;52.136;5.592;2024-02-16T12:33:05;20.70;;;12.10;;
23988;SDS011;74667;52.136;5.592;2024-02-16T12:35:30;21.88;;;12.73;;
23988;SDS011;74667;52.136;5.592;2024-02-16T12:37:56;21.23;;;12.52;;
23988;SDS011;74667;52.136;5.592;2024-02-16T12:40:21;16.75;;;11.52;;
23988;SDS011;74667;52.136;5.592;2024-02-16T12:42:46;23.15;;;13.25;;
23988;SDS011;74667;52.136;5.592;2024-02-16T12:45:13;16.10;;;10.63;;
23988;SDS011;74667;52.136;5.592;2024-02-16T12:47:38;14.48;;;9.38;;
23988;SDS011;74667;52.136;5.592;2024-02-16T12:50:03;15.10;;;9.97;;
23988;SDS011;74667;52.136;5.592;2024-02-16T12:52:29;13.13;;;8.68;;
23988;SDS011;74667;52.136;5.592;2024-02-16T12:54:54;11.18;;;7.55;;
23988;SDS011;74667;52.136;5.592;2024-02-16T12:57:23;11.43;;;7.07;;
23988;SDS011;74667;52.136;5.592;2024-02-16T12:59:48;8.05;;;5.53;;
23988;SDS011;74667;52.136;5.592;2024-02-16T13:02:14;9.13;;;5.45;;
23988;SDS011;74667;52.136;5.592;2024-02-16T13:04:39;6.70;;;4.78;;
23988;SDS011;74667;52.136;5.592;2024-02-16T13:07:05;8.88;;;4.80;;
23988;SDS011;74667;52.136;5.592;2024-02-16T13:09:30;7.53;;;4.35;;
23988;SDS011;74667;52.136;5.592;2024-02-16T13:11:56;6.43;;;4.35;;
23988;SDS011;74667;52.136;5.592;2024-02-16T13:14:21;5.30;;;4.30;;
23988;SDS011;74667;52.136;5.592;2024-02-16T13:16:46;5.38;;;4.03;;
23988;SDS011;74667;52.136;5.592;2024-02-16T13:19:12;5.95;;;3.70;;
23988;SDS011;74667;52.136;5.592;2024-02-16T13:21:38;5.65;;;3.67;;
23988;SDS011;74667;52.136;5.592;2024-02-16T13:24:03;4.63;;;3.78;;
23988;SDS011;74667;52.136;5.592;2024-02-16T13:26:29;5.32;;;3.80;;
23988;SDS011;74667;52.136;5.592;2024-02-16T13:28:55;4.07;;;3.50;;
23988;SDS011;74667;52.136;5.592;2024-02-16T13:31:20;5.68;;;3.78;;
23988;SDS011;74667;52.136;5.592;2024-02-16T13:33:45;3.75;;;3.45;;
23988;SDS011;74667;52.136;5.592;2024-02-16T13:36:11;4.07;;;3.40;;
23988;SDS011;74667;52.136;5.592;2024-02-16T13:38:36;3.93;;;3.40;;
23988;SDS011;74667;52.136;5.592;2024-02-16T13:41:01;7.25;;;3.75;;
23988;SDS011;74667;52.136;5.592;2024-02-16T13:43:26;8.15;;;3.80;;
23988;SDS011;74667;52.136;5.592;2024-02-16T13:45:52;14.73;;;5.45;;
23988;SDS011;74667;52.136;5.592;2024-02-16T13:48:18;5.15;;;3.45;;
23988;SDS011;74667;52.136;5.592;2024-02-16T13:50:49;5.80;;;3.45;;
23988;SDS011;74667;52.136;5.592;2024-02-16T13:53:15;6.53;;;4.28;;
23988;SDS011;74667;52.136;5.592;2024-02-16T13:55:41;12.70;;;6.05;;
23988;SDS011;74667;52.136;5.592;2024-02-16T13:58:06;5.75;;;3.95;;
23988;SDS011;74667;52.136;5.592;2024-02-16T14:00:32;5.27;;;3.17;;
23988;SDS011;74667;52.136;5.592;2024-02-16T14:02:57;5.33;;;4.10;;
23988;SDS011;74667;52.136;5.592;2024-02-16T14:05:22;4.50;;;4.10;;
23988;SDS011;74667;52.136;5.592;2024-02-16T14:07:50;8.23;;;5.13;;
23988;SDS011;74667;52.136;5.592;2024-02-16T14:10:15;4.03;;;3.23;;
23988;SDS011;74667;52.136;5.592;2024-02-16T14:12:40;5.00;;;3.10;;
23988;SDS011;74667;52.136;5.592;2024-02-16T14:15:06;3.60;;;2.80;;
23988;SDS011;74667;52.136;5.592;2024-02-16T14:17:31;2.60;;;2.40;;
23988;SDS011;74667;52.136;5.592;2024-02-16T14:19:57;6.63;;;2.97;;
23988;SDS011;74667;52.136;5.592;2024-02-16T14:22:22;5.28;;;3.53;;
23988;SDS011;74667;52.136;5.592;2024-02-16T14:24:48;4.75;;;3.05;;
23988;SDS011;74667;52.136;5.592;2024-02-16T14:27:13;3.80;;;2.60;;
23988;SDS011;74667;52.136;5.592;2024-02-16T14:29:39;5.30;;;4.17;;
23988;SDS011;74667;52.136;5.592;2024-02-16T14:32:04;7.10;;;4.67;;
23988;SDS011;74667;52.136;5.592;2024-02-16T14:34:29;6.28;;;4.32;;